Atlanta, Georgia
Traffic Map
Current Weather Conditions
Atlanta, Georgia
Few Clouds
Few Clouds
27°
Feels Like: 29°
Wind Chill: 27° Ceiling: Unl
Heat Index: 29° Visibility: 10mi
Dew Point: 22° Wind: 3mph
Humidity: 74% Direction: 270° (W)
Pressure: 30.1in Gusts: 0mph
Raw Report DataKATL 251152Z 27003KT 10SM FEW020 FEW060 27/22 A3010 RMK AO2 SLP178 T02670217 10267 20244 53013
Traffic Incident Summary
Active as of:
Severity:
Category:
InformationThere was an issue retrieving the traffic information for this location. Please try a different location or try again shortly.
Advertisements
Track Severe Weather on mobile